Aviation Digital Data Service (ADDS)

Output produced by METARs form (0941 UTC 25 February 2018)
found at http://aviationweather.gov/adds/metars/
 
KPBG 250520Z 2506/2606 VRB05KT P6SM BKN250 
     FM251100 15010G17KT 2SM -SNPL BR OVC090 
     FM251500 15019G29KT 4SM -SNPL BR OVC015 
     FM251800 16020G31KT 3SM -RASNPL BR OVC025 
     FM252100 17020G29KT P6SM VCSH BKN110 
     FM252300 17017KT P6SM BKN110 
     FM260500 19007KT P6SM SCT250